Accueil
METAR-TAF:

METAR-TAF

Aéroports :

Aéroport international de Koweït

Koweït, Koweït

latitude: 29-13N, longitude: 047-59E, altitude: 55 m

Observation

Le bulletin a été fait il y a 18 minutes, à 10:00 UTC
Vent 18 kt de nord/nord-ouest
Température 23°C
Humidité 53%
Pression 1019 hPa
Visibilité 10 km ou plus
pas de nuages en-dessous de 1500 mètres et pas de cumulonimbus.

METAR: OKBK 181000Z 34018KT CAVOK 23/13 Q1019 NOSIG

Heure: 13:18 (10:18 UTC)

Prévision

Le bulletin a été fait il y a 5 heures et 33 minutes, à 04:45 UTC
Prévision valable du 18 à 06 UTC au 19 à 12 UTC
Vent 10 kt de nord-ouest avec des rafales jusqu'à 20 kt
Visibilité: 7000 m
Ciel clair

TAF: OKBK 180445Z 1806/1912 32010G20KT 7000 SKC

Observations et prévisions météorologiques de plus de 4000 aéroports (messages METAR et TAF).

Les stations disponibles sont représentées par des disques jaunes et rouges sur la carte.

Passer la souris dessus pour voir le nom de la station.

Cliquer dessus pour voir les observations et prévisions météorologiques.

Pour changer de carte: cliquez sur les boutons verts avec une croix noire pour zoomer, sur le bouton vert avec un tiret pour effectuer un zoom arrière, ou sur les flèches vertes pour les cartes adjacentes.


METAR-TAF: